This is the latest recevied weather packets stored in our database for station/object N0LTM. If no packets are shown the sender has not sent any weather packets the latest 10 day(s).
| Time | Temp. | Humidity | Pressure | Rain* | Wind** | Luminosity | Snow |
|---|---|---|---|---|---|---|---|
| 1777698653 | -0.56° C | 92% | 1019.9 hPa | 0 mm | - | - | - |
| 1777697757 | -0.56° C | 91% | 1020 hPa | 0 mm | - | - | - |
| 1777695653 | -0.56° C | 90% | 1019.8 hPa | 0 mm | - | - | - |
| 1777695053 | 0° C | 90% | 1019.8 hPa | 0 mm | - | - | - |
| 1777694156 | 0° C | 90% | 1019.8 hPa | 0 mm | - | - | - |
| 1777693253 | 0.56° C | 90% | 1019.7 hPa | 0 mm | - | - | - |
| 1777692055 | 0.56° C | 90% | 1019.7 hPa | 0 mm | - | - | - |
| 1777691453 | 0.56° C | 90% | 1019.7 hPa | 0 mm | - | - | - |
| 1777690555 | 1.11° C | 89% | 1019.7 hPa | 0 mm | - | - | - |
| 1777687256 | 1.67° C | 88% | 1019.2 hPa | 0 mm | - | - | - |
| 1777685456 | 2.22° C | 88% | 1019 hPa | 0 mm | - | - | - |
| 1777683952 | 2.78° C | 87% | 1018.8 hPa | 0 mm | - | - | - |
| 1777683655 | 2.78° C | 87% | 1018.7 hPa | 0 mm | - | - | - |
| 1777681856 | 3.33° C | 85% | 1018.4 hPa | 0 mm | - | - | - |
| 1777681253 | 3.89° C | 85% | 1018.5 hPa | 0 mm | - | - | - |
| 1777680957 | 3.89° C | 84% | 1018.5 hPa | 0 mm | - | - | - |
| 1777679457 | 4.44° C | 81% | 1018.1 hPa | 0 mm | - | - | - |
| 1777677355 | 7.22° C | 73% | 1017.9 hPa | 0 mm | - | - | - |
| 1777676457 | 6.67° C | 73% | 1017.6 hPa | 0 mm | - | - | - |
| 1777676156 | 6.67° C | 74% | 1017.6 hPa | 0 mm | - | - | - |
| 1777673456 | 6.67° C | 77% | 1017.8 hPa | 0.25 mm | - | - | - |
| 1777672861 | 6.67° C | 77% | 1017.8 hPa | 0.25 mm | - | - | - |
| 1777672255 | 6.67° C | 76% | 1017.8 hPa | 0.25 mm | - | - | - |
| 1777671352 | 6.67° C | 72% | 1017.8 hPa | 0.25 mm | - | - | - |
| 1777670452 | 6.67° C | 68% | 1017.8 hPa | 0 mm | - | - | - |
* Rain latest hour (hover to see other rain measurements)
** Current wind speed in m/s (hover to see current wind gust speed)